createdAt,value
2019-05-23T00:00:40.954Z,86.72
2019-05-23T00:01:41.390Z,87.10
2019-05-23T00:02:41.814Z,87.10
2019-05-23T00:03:42.244Z,86.24
2019-05-23T00:04:42.674Z,87.01
2019-05-23T00:05:43.099Z,87.01
2019-05-23T00:06:43.535Z,86.43
2019-05-23T00:07:43.963Z,86.82
2019-05-23T00:08:44.395Z,86.91
2019-05-23T00:09:44.822Z,87.20
2019-05-23T00:10:45.253Z,87.20
2019-05-23T00:11:45.684Z,86.91
2019-05-23T00:12:46.112Z,87.20
2019-05-23T00:13:46.546Z,87.10
2019-05-23T00:14:46.971Z,87.29
2019-05-23T00:15:47.402Z,87.10
2019-05-23T00:16:47.839Z,87.20
2019-05-23T00:17:48.263Z,87.10
2019-05-23T00:18:48.693Z,87.29
2019-05-23T00:19:49.129Z,87.01
2019-05-23T00:20:49.557Z,86.91
2019-05-23T00:21:49.987Z,87.01
2019-05-23T00:22:50.417Z,87.68
2019-05-23T00:23:50.839Z,86.82
2019-05-23T00:24:51.273Z,86.72
2019-05-23T00:25:51.700Z,87.29
2019-05-23T00:26:52.129Z,87.01
2019-05-23T00:27:52.558Z,87.48
2019-05-23T00:29:09.148Z,86.58
2019-05-23T00:29:53.420Z,86.30
2019-05-23T00:30:53.851Z,86.96
2019-05-23T00:31:54.289Z,87.10
2019-05-23T00:32:54.721Z,87.20
2019-05-23T00:33:55.141Z,86.96
2019-05-23T00:34:55.569Z,87.06
2019-05-23T00:35:55.993Z,87.01
2019-05-23T00:36:56.436Z,86.91
2019-05-23T00:37:56.863Z,86.82
2019-05-23T00:38:57.290Z,86.87
2019-05-23T00:39:57.718Z,87.15
2019-05-23T00:40:58.148Z,86.77
2019-05-23T00:41:58.585Z,86.96
2019-05-23T00:42:59.011Z,86.43
2019-05-23T00:43:59.454Z,86.68
2019-05-23T00:44:59.867Z,86.53
2019-05-23T00:46:00.291Z,86.20
2019-05-23T00:47:00.733Z,86.77
2019-05-23T00:48:01.181Z,87.06
2019-05-23T00:49:01.588Z,86.58
2019-05-23T00:50:02.013Z,86.68
2019-05-23T00:51:05.354Z,86.39
2019-05-23T00:52:02.873Z,87.25
2019-05-23T00:53:03.304Z,86.39
2019-05-23T00:54:03.736Z,86.87
2019-05-23T00:55:04.165Z,86.39
2019-05-23T00:56:04.594Z,86.49
2019-05-23T00:57:05.032Z,86.30
2019-05-23T00:58:05.452Z,87.06
2019-05-23T00:59:05.882Z,86.30
2019-05-23T01:00:06.309Z,86.20
2019-05-23T01:01:06.745Z,86.63
2019-05-23T01:02:07.241Z,86.87
2019-05-23T01:03:07.603Z,86.58
2019-05-23T01:04:08.030Z,87.15
2019-05-23T01:05:08.458Z,86.39
2019-05-23T01:06:08.892Z,86.68
2019-05-23T01:07:09.320Z,86.30
2019-05-23T01:08:09.749Z,86.39
2019-05-23T01:09:10.181Z,86.58
2019-05-23T01:10:10.614Z,86.39
2019-05-23T01:11:11.038Z,86.58
2019-05-23T01:12:11.468Z,86.20
2019-05-23T01:13:11.897Z,86.30
2019-05-23T01:14:12.327Z,86.39
2019-05-23T01:15:12.756Z,86.30
2019-05-23T01:16:13.191Z,85.72
2019-05-23T01:17:13.614Z,86.01
2019-05-23T01:18:14.049Z,86.49
2019-05-23T01:19:14.482Z,86.39
2019-05-23T01:20:14.910Z,86.49
2019-05-23T01:21:15.366Z,86.20
2019-05-23T01:22:15.764Z,86.39
2019-05-23T01:23:16.195Z,86.20
2019-05-23T01:24:16.628Z,86.10
2019-05-23T01:25:17.063Z,85.82
2019-05-23T01:26:17.488Z,85.63
2019-05-23T01:27:17.914Z,85.82
2019-05-23T01:28:18.343Z,85.53
2019-05-23T01:29:18.772Z,85.82
2019-05-23T01:30:19.204Z,85.44
2019-05-23T01:31:19.727Z,85.63
2019-05-23T01:32:20.058Z,85.44
2019-05-23T01:33:20.490Z,85.63
2019-05-23T01:34:20.929Z,85.44
2019-05-23T01:35:21.354Z,85.44
2019-05-23T01:36:21.781Z,85.44
2019-05-23T01:37:22.220Z,85.53
2019-05-23T01:38:22.642Z,85.25
2019-05-23T01:39:23.064Z,85.34
2019-05-23T01:40:23.492Z,85.44
2019-05-23T01:41:23.951Z,85.34
2019-05-23T01:42:24.381Z,85.44
2019-05-23T01:43:24.788Z,84.96
2019-05-23T01:44:25.213Z,85.05
2019-05-23T01:45:25.654Z,85.15
2019-05-23T01:46:26.108Z,84.67
2019-05-23T01:47:26.501Z,84.10
2019-05-23T01:48:26.932Z,84.10
2019-05-23T01:49:27.364Z,84.10
2019-05-23T01:50:27.792Z,84.48
2019-05-23T01:51:28.219Z,84.39
2019-05-23T01:52:28.647Z,84.48
2019-05-23T01:53:29.104Z,84.77
2019-05-23T01:54:29.512Z,84.58
2019-05-23T01:55:29.936Z,85.15
2019-05-23T01:56:30.373Z,84.39
2019-05-23T01:57:30.805Z,84.67
2019-05-23T01:58:31.244Z,83.62
2019-05-23T01:59:31.655Z,83.72
2019-05-23T02:00:32.090Z,84.20
2019-05-23T02:01:32.522Z,83.53
2019-05-23T02:02:32.945Z,84.20
2019-05-23T02:03:33.371Z,84.29
2019-05-23T02:04:33.806Z,83.81
2019-05-23T02:05:34.231Z,83.39
2019-05-23T02:06:34.661Z,83.62
2019-05-23T02:07:35.091Z,84.34
2019-05-23T02:08:35.518Z,84.29
2019-05-23T02:09:35.949Z,83.91
2019-05-23T02:10:36.378Z,83.58
2019-05-23T02:11:36.833Z,83.11
2019-05-23T02:12:37.236Z,82.91
2019-05-23T02:13:37.668Z,83.29
2019-05-23T02:14:38.098Z,83.11
2019-05-23T02:15:38.524Z,83.39
2019-05-23T02:16:38.965Z,83.01
2019-05-23T02:17:39.384Z,82.82
2019-05-23T02:18:39.815Z,82.91
2019-05-23T02:19:40.244Z,82.91
2019-05-23T02:20:40.673Z,82.72
2019-05-23T02:21:41.107Z,82.24
2019-05-23T02:22:41.533Z,82.34
2019-05-23T02:23:41.961Z,81.96
2019-05-23T02:24:42.394Z,82.63
2019-05-23T02:25:42.946Z,81.58
2019-05-23T02:26:43.265Z,82.24
2019-05-23T02:27:43.673Z,82.06
2019-05-23T02:28:44.110Z,82.34
2019-05-23T02:29:44.555Z,81.20
2019-05-23T02:30:44.976Z,81.01
2019-05-23T02:31:45.397Z,80.81
2019-05-23T02:32:45.821Z,80.91
2019-05-23T02:33:46.256Z,80.62
2019-05-23T02:34:46.678Z,80.33
2019-05-23T02:35:47.111Z,79.82
2019-05-23T02:36:47.540Z,79.91
2019-05-23T02:37:47.967Z,79.77
2019-05-23T02:38:48.394Z,79.35
2019-05-23T02:39:48.839Z,79.25
2019-05-23T02:40:49.262Z,79.19
2019-05-23T02:41:49.682Z,79.96
2019-05-23T02:42:50.118Z,79.15
2019-05-23T02:43:50.544Z,79.38
2019-05-23T02:44:50.982Z,80.05
2019-05-23T02:45:51.399Z,79.10
2019-05-23T02:46:51.829Z,78.86
2019-05-23T02:47:52.279Z,78.58
2019-05-23T02:48:52.689Z,78.30
2019-05-23T02:49:53.114Z,77.34
2019-05-23T02:50:53.549Z,76.57
2019-05-23T02:51:53.981Z,77.53
2019-05-23T02:52:54.401Z,77.53
2019-05-23T02:53:54.835Z,77.44
2019-05-23T02:54:55.271Z,77.82
2019-05-23T02:55:55.689Z,77.34
2019-05-23T02:56:56.130Z,76.57
2019-05-23T02:57:56.548Z,77.53
2019-05-23T02:58:56.973Z,77.76
2019-05-23T02:59:57.402Z,78.14
2019-05-23T03:00:57.840Z,77.82
2019-05-23T03:01:58.262Z,77.72
2019-05-23T03:02:58.693Z,77.53
2019-05-23T03:03:59.123Z,78.01
2019-05-23T03:04:59.543Z,77.44
2019-05-23T03:05:59.984Z,77.72
2019-05-23T03:07:00.410Z,77.72
2019-05-23T03:08:00.851Z,77.06
2019-05-23T03:09:01.266Z,77.53
2019-05-23T03:10:01.712Z,76.77
2019-05-23T03:11:02.136Z,76.77
2019-05-23T03:12:02.550Z,76.20
2019-05-23T03:13:02.979Z,76.77
2019-05-23T03:14:03.414Z,76.10
2019-05-23T03:15:03.834Z,76.10
2019-05-23T03:16:04.266Z,75.24
2019-05-23T03:17:04.712Z,75.43
2019-05-23T03:18:05.119Z,75.05
2019-05-23T03:19:05.549Z,75.34
2019-05-23T03:20:05.992Z,75.62
2019-05-23T03:21:06.411Z,75.05
2019-05-23T03:22:06.835Z,75.43
2019-05-23T03:23:07.263Z,75.24
2019-05-23T03:24:07.693Z,75.24
2019-05-23T03:25:08.120Z,75.72
2019-05-23T03:26:08.555Z,75.34
2019-05-23T03:27:08.986Z,76.20
2019-05-23T03:28:09.410Z,76.39
2019-05-23T03:29:09.836Z,75.05
2019-05-23T03:30:10.267Z,75.24
2019-05-23T03:31:28.737Z,74.48
2019-05-23T03:32:11.128Z,74.96
2019-05-23T03:33:11.552Z,74.29
2019-05-23T03:34:11.995Z,73.72
2019-05-23T03:35:12.422Z,74.01
2019-05-23T03:36:12.883Z,75.05
2019-05-23T03:37:13.268Z,75.34
2019-05-23T03:38:13.697Z,75.43
2019-05-23T03:39:14.124Z,74.96
2019-05-23T03:40:14.556Z,75.24
2019-05-23T03:41:14.985Z,75.24
2019-05-23T03:42:15.414Z,74.77
2019-05-23T03:43:15.836Z,74.96
2019-05-23T03:44:16.264Z,74.38
2019-05-23T03:45:16.697Z,74.38
2019-05-23T03:46:17.128Z,74.29
2019-05-23T03:47:17.556Z,74.10
2019-05-23T03:48:17.979Z,73.05
2019-05-23T03:49:18.409Z,73.91
2019-05-23T03:50:18.838Z,74.19
2019-05-23T03:51:19.266Z,73.33
2019-05-23T03:52:19.719Z,74.29
2019-05-23T03:53:20.135Z,74.19
2019-05-23T03:54:20.573Z,73.05
2019-05-23T03:55:20.975Z,73.72
2019-05-23T03:56:21.406Z,74.10
2019-05-23T03:57:25.585Z,73.05
2019-05-23T03:58:22.271Z,72.25
2019-05-23T03:59:22.699Z,72.09
2019-05-23T04:00:23.128Z,71.96
2019-05-23T04:01:23.557Z,72.44
2019-05-23T04:02:24.006Z,72.44
2019-05-23T04:03:24.476Z,72.72
2019-05-23T04:04:24.837Z,73.01
2019-05-23T04:05:25.263Z,73.14
2019-05-23T04:06:25.695Z,72.53
2019-05-23T04:07:26.121Z,72.16
2019-05-23T04:08:26.551Z,72.09
2019-05-23T04:09:26.984Z,72.76
2019-05-23T04:10:27.413Z,72.76
2019-05-23T04:11:27.832Z,72.00
2019-05-23T04:12:28.267Z,71.58
2019-05-23T04:13:28.693Z,72.34
2019-05-23T04:14:29.122Z,72.57
2019-05-23T04:15:29.551Z,72.25
2019-05-23T04:16:30.764Z,71.39
2019-05-23T04:17:30.410Z,72.16
2019-05-23T04:18:30.832Z,70.72
2019-05-23T04:19:31.266Z,72.09
2019-05-23T04:20:31.693Z,72.96
2019-05-23T04:21:32.118Z,73.14
2019-05-23T04:22:32.554Z,72.25
2019-05-23T04:23:32.978Z,71.39
2019-05-23T04:24:33.416Z,71.11
2019-05-23T04:25:33.834Z,71.96
2019-05-23T04:26:34.273Z,71.58
2019-05-23T04:27:34.693Z,70.63
2019-05-23T04:28:35.142Z,70.25
2019-05-23T04:29:35.567Z,69.87
2019-05-23T04:30:36.002Z,68.82
2019-05-23T04:31:36.403Z,68.53
2019-05-23T04:32:36.843Z,69.10
2019-05-23T04:33:37.278Z,68.72
2019-05-23T04:34:37.695Z,67.58
2019-05-23T04:35:38.130Z,67.00
2019-05-23T04:36:38.561Z,66.50
2019-05-23T04:37:39.007Z,66.53
2019-05-23T04:38:39.406Z,66.40
2019-05-23T04:39:39.852Z,66.05
2019-05-23T04:40:40.264Z,66.11
2019-05-23T04:41:40.718Z,65.16
2019-05-23T04:42:41.124Z,65.16
2019-05-23T04:43:41.546Z,64.12
2019-05-23T04:44:44.276Z,64.50
2019-05-23T04:45:42.412Z,64.02
2019-05-23T04:46:42.836Z,64.31
2019-05-23T04:47:43.267Z,64.62
2019-05-23T04:48:43.692Z,64.62
2019-05-23T04:49:44.126Z,63.83
2019-05-23T04:50:44.562Z,64.59
2019-05-23T04:51:44.975Z,64.40
2019-05-23T04:52:45.407Z,62.78
2019-05-23T04:53:45.858Z,64.34
2019-05-23T04:54:46.270Z,64.43
2019-05-23T04:55:46.692Z,63.83
2019-05-23T04:56:47.132Z,64.53
2019-05-23T04:57:47.548Z,64.81
2019-05-23T04:58:47.974Z,63.64
2019-05-23T04:59:48.414Z,63.67
2019-05-23T05:00:48.836Z,63.86
2019-05-23T05:01:49.255Z,63.35
2019-05-23T05:02:49.713Z,63.73
2019-05-23T05:03:50.118Z,63.26
2019-05-23T05:04:50.555Z,64.15
2019-05-23T05:05:50.980Z,63.29
2019-05-23T05:06:51.411Z,63.20
2019-05-23T05:07:51.824Z,63.29
2019-05-23T05:08:52.285Z,64.24
2019-05-23T05:09:52.687Z,63.86
2019-05-23T05:10:53.114Z,63.92
2019-05-23T05:11:53.549Z,63.17
2019-05-23T05:12:53.967Z,62.62
2019-05-23T05:13:54.400Z,63.96
2019-05-23T05:14:54.826Z,64.34
2019-05-23T05:15:55.256Z,63.57
2019-05-23T05:16:55.689Z,64.34
2019-05-23T05:17:56.109Z,64.81
2019-05-23T05:18:56.566Z,65.86
2019-05-23T05:19:56.982Z,66.44
2019-05-23T05:20:57.406Z,67.29
2019-05-23T05:21:57.842Z,67.86
2019-05-23T05:22:58.315Z,67.68
2019-05-23T05:23:58.689Z,66.24
2019-05-23T05:24:59.106Z,66.82
2019-05-23T05:25:59.529Z,66.34
2019-05-23T05:26:59.971Z,68.72
2019-05-23T05:28:00.395Z,69.68
2019-05-23T05:29:00.837Z,69.96
2019-05-23T05:30:01.491Z,70.67
2019-05-23T05:31:01.738Z,72.00
2019-05-23T05:32:03.910Z,72.06
2019-05-23T05:33:02.530Z,72.09
2019-05-23T05:34:02.968Z,72.96
2019-05-23T05:35:03.406Z,73.43
2019-05-23T05:36:03.836Z,74.38
2019-05-23T05:37:04.250Z,75.53
2019-05-23T05:38:04.697Z,74.77
2019-05-23T05:39:05.112Z,75.34
2019-05-23T05:40:05.533Z,76.39
2019-05-23T05:41:05.964Z,76.57
2019-05-23T05:42:06.402Z,76.86
2019-05-23T05:43:06.820Z,78.49
2019-05-23T05:44:07.251Z,78.86
2019-05-23T05:45:07.673Z,79.72
2019-05-23T05:46:08.111Z,79.15
2019-05-23T05:47:08.543Z,79.25
2019-05-23T05:48:08.992Z,80.11
2019-05-23T05:49:09.434Z,80.30
2019-05-23T05:50:09.826Z,80.43
2019-05-23T05:51:10.257Z,81.10
2019-05-23T05:52:10.682Z,81.48
2019-05-23T05:53:11.110Z,81.29
2019-05-23T05:54:11.611Z,80.81
2019-05-23T05:55:11.973Z,82.82
2019-05-23T05:56:12.430Z,82.53
2019-05-23T05:57:12.830Z,83.20
2019-05-23T05:58:13.266Z,83.77
2019-05-23T05:59:13.695Z,84.44
2019-05-23T06:00:14.115Z,83.96
2019-05-23T06:01:31.160Z,84.34
2019-05-23T06:02:14.975Z,85.39
2019-05-23T06:03:15.409Z,85.63
2019-05-23T06:04:15.836Z,86.20
2019-05-23T06:05:16.279Z,86.39
2019-05-23T06:06:16.700Z,87.06
2019-05-23T06:07:17.138Z,87.06
2019-05-23T06:08:17.562Z,87.06
2019-05-23T06:09:17.990Z,88.87
2019-05-23T06:10:18.442Z,89.16
2019-05-23T06:11:18.850Z,88.92
2019-05-23T06:12:19.282Z,90.16
2019-05-23T06:13:19.713Z,90.25
2019-05-23T06:14:20.148Z,91.06
2019-05-23T06:15:20.570Z,91.54
2019-05-23T06:16:21.011Z,92.30
2019-05-23T06:17:21.435Z,92.97
2019-05-23T06:18:21.878Z,93.74
2019-05-23T06:19:22.314Z,93.69
2019-05-23T06:20:22.739Z,94.79
2019-05-23T06:21:23.164Z,95.27
2019-05-23T06:22:23.694Z,94.12
2019-05-23T06:23:24.030Z,94.50
2019-05-23T06:24:41.833Z,94.21
2019-05-23T06:25:24.901Z,92.82
2019-05-23T06:26:25.334Z,93.68
2019-05-23T06:27:25.768Z,92.63
2019-05-23T06:28:26.210Z,92.82
2019-05-23T06:29:26.642Z,91.75
2019-05-23T06:30:27.092Z,89.30
2019-05-23T06:31:27.528Z,85.65
2019-05-23T06:32:27.970Z,84.40
2019-05-23T06:33:28.404Z,84.78
2019-05-23T06:34:28.847Z,85.85
2019-05-23T06:35:29.286Z,85.17
2019-05-23T06:36:29.722Z,84.59
2019-05-23T06:37:34.133Z,84.97
2019-05-23T06:38:30.623Z,83.63
2019-05-23T06:39:31.066Z,86.19
2019-05-23T06:40:31.506Z,86.24
2019-05-23T06:41:31.942Z,86.52
2019-05-23T06:42:32.391Z,85.36
2019-05-23T06:43:32.842Z,82.41
2019-05-23T06:44:33.273Z,79.27
2019-05-23T06:45:33.736Z,75.71
2019-05-23T06:46:34.171Z,75.23
2019-05-23T06:47:34.638Z,75.76
2019-05-23T06:48:35.066Z,77.71
2019-05-23T06:49:35.516Z,77.94
2019-05-23T06:50:35.960Z,77.58
2019-05-23T06:51:36.416Z,73.33
2019-05-23T06:52:36.853Z,75.51
2019-05-23T06:53:37.305Z,74.10
2019-05-23T06:54:37.758Z,73.85
2019-05-23T06:55:38.240Z,72.63
2019-05-23T06:56:38.649Z,70.96
2019-05-23T06:57:39.097Z,72.06
2019-05-23T06:58:39.578Z,70.83
2019-05-23T06:59:39.992Z,73.61
2019-05-23T07:00:40.454Z,73.58
2019-05-23T07:01:40.897Z,73.47
2019-05-23T07:02:41.358Z,70.96
2019-05-23T07:03:43.664Z,69.64
2019-05-23T07:04:42.236Z,67.71
2019-05-23T07:05:42.697Z,68.23
2019-05-23T07:06:43.147Z,70.42
2019-05-23T07:07:43.592Z,70.48
2019-05-23T07:08:44.046Z,68.20
2019-05-23T07:09:44.499Z,64.82
2019-05-23T07:10:44.997Z,64.56
2019-05-23T07:11:45.407Z,65.78
2019-05-23T07:12:45.870Z,64.95
2019-05-23T07:13:46.303Z,62.79
2019-05-23T07:14:46.763Z,67.03
2019-05-23T07:15:47.277Z,67.91
2019-05-23T07:16:50.238Z,65.98
2019-05-23T07:17:48.115Z,66.17
2019-05-23T07:18:48.579Z,66.27
2019-05-23T07:19:49.032Z,68.10
2019-05-23T07:20:49.481Z,69.06
2019-05-23T07:21:49.987Z,71.55
2019-05-23T07:22:50.383Z,74.40
2019-05-23T07:23:50.843Z,73.32
2019-05-23T07:24:58.259Z,71.91
2019-05-23T07:25:51.736Z,70.41
2019-05-23T07:26:52.209Z,69.67
2019-05-23T07:27:53.051Z,67.16
2019-05-23T07:28:53.099Z,67.65
2019-05-23T07:29:53.567Z,68.04
2019-05-23T07:30:54.016Z,69.24
2019-05-23T07:31:54.467Z,74.46
2019-05-23T07:32:54.933Z,73.94
2019-05-23T07:34:01.560Z,77.08
2019-05-23T07:34:55.826Z,79.72
2019-05-23T07:35:56.318Z,79.71
2019-05-23T07:36:56.723Z,77.78
2019-05-23T07:37:57.208Z,74.21
2019-05-23T07:38:57.621Z,70.40
2019-05-23T07:39:58.076Z,69.38
2019-05-23T07:40:58.531Z,68.09
2019-05-23T07:41:58.986Z,66.49
2019-05-23T07:42:59.450Z,67.71
2019-05-23T07:43:59.884Z,67.61
2019-05-23T07:45:00.341Z,65.91
2019-05-23T07:46:00.825Z,66.65
2019-05-23T07:47:01.261Z,67.10
2019-05-23T07:48:01.694Z,66.04
2019-05-23T07:49:02.406Z,66.01
2019-05-23T07:50:02.632Z,66.88
2019-05-23T07:51:03.070Z,64.92
2019-05-23T07:52:03.526Z,63.54
2019-05-23T07:53:03.975Z,65.20
2019-05-23T07:54:04.897Z,68.48
2019-05-23T07:55:04.901Z,67.68
2019-05-23T07:56:05.359Z,67.26
2019-05-23T07:57:05.806Z,65.98
2019-05-23T07:58:06.260Z,65.17
2019-05-23T07:59:06.718Z,64.40
2019-05-23T08:00:07.181Z,66.04
2019-05-23T08:01:07.632Z,67.42
2019-05-23T08:02:08.091Z,68.13
2019-05-23T08:03:08.547Z,68.80
2019-05-23T08:04:20.372Z,67.74
2019-05-23T08:05:09.459Z,66.52
2019-05-23T08:06:09.930Z,66.74
2019-05-23T08:07:10.370Z,65.81
2019-05-23T08:08:10.842Z,64.73
2019-05-23T08:09:11.292Z,65.27
2019-05-23T08:11:05.897Z,64.98
2019-05-23T08:12:06.347Z,65.46
2019-05-23T08:14:01.217Z,66.01
2019-05-23T08:15:01.573Z,65.91
2019-05-23T08:16:56.033Z,64.82
2019-05-23T08:17:56.494Z,65.91
2019-05-23T08:19:51.115Z,62.54
2019-05-23T08:20:51.565Z,63.89
2019-05-23T08:22:46.233Z,61.07
2019-05-23T08:23:46.643Z,60.39
2019-05-23T08:25:42.352Z,58.39
2019-05-23T08:26:42.808Z,56.56
2019-05-23T08:28:53.366Z,55.71
2019-05-23T08:29:37.883Z,54.29
2019-05-23T08:31:33.483Z,56.52
2019-05-23T08:32:33.946Z,59.94
2019-05-23T08:34:40.792Z,62.48
2019-05-23T08:35:29.022Z,62.51
2019-05-23T08:37:23.651Z,61.00
2019-05-23T08:38:24.120Z,58.36
2019-05-23T08:40:18.738Z,54.27
2019-05-23T08:41:19.189Z,55.18
2019-05-23T08:43:14.482Z,55.20
2019-05-23T08:44:14.273Z,55.13
2019-05-23T08:46:09.887Z,56.35
2019-05-23T08:47:10.339Z,58.37
2019-05-23T08:49:04.969Z,55.81
2019-05-23T08:50:05.454Z,55.16
2019-05-23T08:52:00.073Z,54.43
2019-05-23T08:53:00.538Z,56.82
2019-05-23T08:54:55.150Z,56.40
2019-05-23T08:55:55.617Z,54.61
2019-05-23T08:57:50.257Z,47.94
2019-05-23T08:58:50.718Z,47.28
2019-05-23T08:59:51.184Z,45.83
2019-05-23T09:00:51.639Z,47.94
2019-05-23T09:01:52.125Z,50.96
2019-05-23T09:02:52.567Z,53.44
2019-05-23T09:03:53.021Z,51.68
2019-05-23T09:05:04.304Z,49.32
2019-05-23T09:05:53.957Z,48.54
2019-05-23T09:06:54.424Z,45.48
2019-05-23T09:07:54.884Z,44.21
2019-05-23T09:08:55.350Z,40.73
2019-05-23T09:09:55.828Z,41.16
2019-05-23T09:10:56.283Z,44.26
2019-05-23T09:11:56.755Z,40.99
2019-05-23T09:12:57.211Z,37.99
2019-05-23T09:13:57.680Z,41.64
2019-05-23T09:14:58.150Z,46.03
2019-05-23T09:15:58.618Z,45.37
2019-05-23T09:16:59.113Z,44.98
2019-05-23T09:17:59.563Z,44.24
2019-05-23T09:19:00.021Z,42.07
2019-05-23T09:20:00.496Z,46.73
2019-05-23T09:21:00.957Z,46.58
2019-05-23T09:22:01.425Z,42.91
2019-05-23T09:23:01.890Z,42.34
2019-05-23T09:24:02.361Z,43.45
2019-05-23T09:25:02.842Z,42.23
2019-05-23T09:26:03.300Z,40.72
2019-05-23T09:27:03.773Z,39.90
2019-05-23T09:28:04.278Z,35.91
2019-05-23T09:29:04.695Z,35.08
2019-05-23T09:30:05.166Z,36.40
2019-05-23T09:31:05.636Z,37.37
2019-05-23T09:32:06.094Z,39.76
2019-05-23T09:33:06.590Z,43.66
2019-05-23T09:34:07.029Z,44.24
2019-05-23T09:35:20.222Z,44.63
2019-05-23T09:36:07.962Z,42.43
2019-05-23T09:37:08.428Z,42.88
2019-05-23T09:38:08.895Z,43.15
2019-05-23T09:39:09.362Z,42.55
2019-05-23T09:40:09.823Z,46.20
2019-05-23T09:41:10.288Z,42.41
2019-05-23T09:42:12.219Z,41.24
2019-05-23T09:43:11.222Z,38.27
2019-05-23T09:44:11.685Z,37.46
2019-05-23T09:45:12.173Z,36.16
2019-05-23T09:46:12.615Z,34.43
2019-05-23T09:47:13.090Z,36.30
2019-05-23T09:48:13.562Z,37.71
2019-05-23T09:49:14.023Z,38.50
2019-05-23T09:50:14.482Z,39.94
2019-05-23T09:51:14.950Z,40.52
2019-05-23T09:52:15.567Z,39.24
2019-05-23T09:53:15.893Z,34.64
2019-05-23T09:54:16.362Z,32.91
2019-05-23T09:55:16.835Z,33.59
2019-05-23T09:56:17.310Z,33.65
2019-05-23T09:57:17.773Z,32.03
2019-05-23T09:58:18.231Z,32.57
2019-05-23T09:59:18.706Z,33.93
2019-05-23T10:00:19.166Z,35.00
2019-05-23T10:01:19.785Z,36.16
2019-05-23T10:02:20.108Z,38.13
2019-05-23T10:03:20.574Z,40.00
2019-05-23T10:04:21.045Z,40.23
2019-05-23T10:05:40.819Z,39.08
2019-05-23T10:06:21.977Z,39.55
2019-05-23T10:07:22.445Z,37.12
2019-05-23T10:08:22.931Z,37.30
2019-05-23T10:09:23.381Z,39.70
2019-05-23T10:10:23.846Z,41.95
2019-05-23T10:11:24.311Z,38.21
2019-05-23T10:12:24.792Z,34.95
2019-05-23T10:13:38.410Z,38.09
2019-05-23T10:14:25.720Z,36.85
2019-05-23T10:15:26.184Z,38.02
2019-05-23T10:16:26.662Z,39.61
2019-05-23T10:17:27.133Z,41.63
2019-05-23T10:18:27.599Z,40.98
2019-05-23T10:19:28.115Z,43.33
2019-05-23T10:20:28.537Z,42.41
2019-05-23T10:21:29.001Z,39.34
2019-05-23T10:22:29.463Z,39.11
2019-05-23T10:23:29.941Z,38.48
2019-05-23T10:24:30.406Z,38.45
2019-05-23T10:25:30.876Z,36.87
2019-05-23T10:26:31.357Z,35.16
2019-05-23T10:27:31.831Z,36.72
2019-05-23T10:28:32.283Z,38.89
2019-05-23T10:29:32.751Z,41.09
2019-05-23T10:30:33.224Z,41.17
2019-05-23T10:31:33.687Z,40.61
2019-05-23T10:32:34.167Z,38.73
2019-05-23T10:33:34.644Z,36.10
2019-05-23T10:34:35.116Z,35.33
2019-05-23T10:35:35.571Z,34.69
2019-05-23T10:36:36.050Z,34.35
2019-05-23T10:37:36.509Z,34.09
2019-05-23T10:38:36.978Z,34.93
2019-05-23T10:39:37.436Z,36.66
2019-05-23T10:40:37.920Z,38.35
2019-05-23T10:41:38.379Z,37.18
2019-05-23T10:42:38.840Z,34.90
2019-05-23T10:43:39.309Z,35.72
2019-05-23T10:44:39.782Z,33.72
2019-05-23T10:45:40.246Z,35.67
2019-05-23T10:46:40.716Z,36.86
2019-05-23T10:47:41.188Z,36.28
2019-05-23T10:48:41.653Z,38.06
2019-05-23T10:49:42.120Z,34.67
2019-05-23T10:50:45.201Z,32.68
2019-05-23T10:51:43.052Z,30.93
2019-05-23T10:52:43.524Z,30.87
2019-05-23T10:53:43.992Z,33.44
2019-05-23T10:54:44.452Z,31.44
2019-05-23T10:55:44.932Z,32.09
2019-05-23T10:56:45.400Z,31.44
2019-05-23T10:57:46.006Z,30.79
2019-05-23T10:58:46.327Z,32.50
2019-05-23T10:59:46.791Z,32.05
2019-05-23T11:00:47.258Z,31.29
2019-05-23T11:01:47.761Z,33.25
2019-05-23T11:02:48.189Z,33.57
2019-05-23T11:05:24.172Z,33.23
2019-05-23T11:06:24.707Z,32.81
2019-05-23T11:08:27.228Z,34.86
2019-05-23T11:10:54.717Z,36.99
2019-05-23T11:11:55.187Z,34.52
2019-05-23T11:13:49.817Z,33.98
2019-05-23T11:14:50.287Z,35.08
2019-05-23T11:16:44.898Z,37.17
2019-05-23T11:17:45.364Z,42.15
2019-05-23T11:19:40.049Z,43.24
2019-05-23T11:20:40.461Z,43.72
2019-05-23T11:22:35.098Z,44.49
2019-05-23T11:23:35.558Z,43.20
2019-05-23T11:24:36.081Z,43.20
2019-05-23T11:27:09.620Z,41.54
2019-05-23T11:28:10.075Z,41.17
2019-05-23T11:30:04.769Z,39.57
2019-05-23T11:31:05.189Z,39.12
2019-05-23T11:32:59.827Z,43.17
2019-05-23T11:34:00.258Z,44.98
2019-05-23T11:35:54.882Z,46.04
2019-05-23T11:36:55.339Z,46.11
2019-05-23T11:38:49.976Z,46.40
2019-05-23T11:39:51.236Z,48.74
2019-05-23T11:41:45.103Z,50.18
2019-05-23T11:42:45.468Z,48.74
2019-05-23T11:44:40.061Z,51.38
2019-05-23T11:45:45.841Z,52.06
2019-05-23T11:47:35.272Z,49.10
2019-05-23T11:48:35.577Z,49.74
2019-05-23T11:50:30.363Z,50.32
2019-05-23T11:51:30.642Z,50.40
2019-05-23T11:53:25.246Z,51.40
2019-05-23T11:54:25.693Z,51.53
2019-05-23T11:56:21.608Z,51.35
2019-05-23T11:57:21.724Z,51.45
2019-05-23T11:59:16.433Z,54.43
2019-05-23T12:00:16.796Z,54.85
2019-05-23T12:02:12.367Z,51.19
2019-05-23T12:03:12.809Z,51.76
2019-05-23T12:05:07.434Z,52.83
2019-05-23T12:06:07.880Z,51.29
2019-05-23T12:08:02.510Z,53.76
2019-05-23T12:09:02.955Z,53.23
2019-05-23T12:10:58.533Z,49.29
2019-05-23T12:11:58.923Z,48.54
2019-05-23T12:13:53.534Z,49.41
2019-05-23T12:14:53.971Z,49.02
2019-05-23T12:16:51.752Z,50.51
2019-05-23T12:17:49.486Z,50.61
2019-05-23T12:19:44.150Z,51.21
2019-05-23T12:20:44.542Z,51.48
2019-05-23T12:22:39.222Z,52.47
2019-05-23T12:23:39.549Z,51.41
2019-05-23T12:25:35.828Z,52.95
2019-05-23T12:26:35.549Z,51.96
2019-05-23T12:28:30.193Z,53.21
2019-05-23T12:29:30.578Z,53.23
2019-05-23T12:31:25.191Z,52.08
2019-05-23T12:32:25.614Z,53.62
2019-05-23T12:34:20.207Z,50.95
2019-05-23T12:35:20.658Z,52.27
2019-05-23T12:37:19.115Z,53.98
2019-05-23T12:38:15.674Z,53.69
2019-05-23T12:40:10.375Z,53.66
2019-05-23T12:41:10.692Z,54.63
2019-05-23T12:43:06.382Z,53.69
2019-05-23T12:44:06.702Z,54.53
2019-05-23T12:46:02.139Z,56.87
2019-05-23T12:47:01.734Z,54.34
2019-05-23T12:48:58.242Z,54.46
2019-05-23T12:49:57.777Z,54.50
2019-05-23T12:50:58.221Z,55.59
2019-05-23T12:51:58.662Z,54.27
2019-05-23T12:52:59.110Z,53.11
2019-05-23T12:53:59.553Z,54.20
2019-05-23T12:55:00.515Z,53.88
2019-05-23T12:56:00.440Z,54.94
2019-05-23T12:57:00.880Z,54.65
2019-05-23T12:58:01.341Z,54.65
2019-05-23T12:59:01.775Z,54.94
2019-05-23T13:00:02.213Z,55.13
2019-05-23T13:01:02.655Z,53.78
2019-05-23T13:02:03.091Z,54.75
2019-05-23T13:03:03.542Z,52.56
2019-05-23T13:04:03.985Z,54.56
2019-05-23T13:05:04.442Z,56.32
2019-05-23T13:06:04.869Z,54.36
2019-05-23T13:07:05.316Z,55.26
2019-05-23T13:08:06.381Z,54.68
2019-05-23T13:09:06.224Z,54.52
2019-05-23T13:10:06.644Z,54.42
2019-05-23T13:11:07.090Z,51.94
2019-05-23T13:12:07.535Z,52.01
2019-05-23T13:13:07.970Z,52.23
2019-05-23T13:14:08.406Z,52.49
2019-05-23T13:15:08.849Z,53.14
2019-05-23T13:16:09.299Z,53.72
2019-05-23T13:17:09.738Z,51.76
2019-05-23T13:18:10.184Z,52.15
2019-05-23T13:19:10.666Z,53.72
2019-05-23T13:20:11.069Z,52.66
2019-05-23T13:21:11.515Z,53.23
2019-05-23T13:22:11.965Z,54.32
2019-05-23T13:23:20.443Z,51.12
2019-05-23T13:24:12.846Z,50.30
2019-05-23T13:25:13.290Z,51.64
2019-05-23T13:26:13.739Z,51.57
2019-05-23T13:27:14.178Z,50.99
2019-05-23T13:28:14.618Z,50.63
2019-05-23T13:29:15.056Z,51.02
2019-05-23T13:30:15.497Z,49.77
2019-05-23T13:31:15.944Z,51.72
2019-05-23T13:32:16.392Z,50.57
2019-05-23T13:33:16.835Z,50.47
2019-05-23T13:34:17.278Z,53.17
2019-05-23T13:35:17.767Z,51.31
2019-05-23T13:36:18.157Z,52.59
2019-05-23T13:37:18.600Z,50.63
2019-05-23T13:38:19.036Z,51.60
2019-05-23T13:39:19.488Z,51.50
2019-05-23T13:40:19.944Z,51.05
2019-05-23T13:41:20.371Z,50.57
2019-05-23T13:42:20.821Z,51.72
2019-05-23T13:43:21.266Z,51.72
2019-05-23T13:44:33.882Z,50.83
2019-05-23T13:45:22.129Z,51.53
2019-05-23T13:46:22.570Z,50.57
2019-05-23T13:47:23.026Z,50.35
2019-05-23T13:48:27.849Z,50.90